createdAt,value
2017-07-20T00:00:07.593Z,11.32
2017-07-20T00:02:41.964Z,10.15
2017-07-20T00:05:17.249Z,10.50
2017-07-20T00:07:51.748Z,10.68
2017-07-20T00:10:26.489Z,11.43
2017-07-20T00:13:00.794Z,10.15
2017-07-20T00:15:35.784Z,11.73
2017-07-20T00:18:10.136Z,12.77
2017-07-20T00:20:44.564Z,12.50
2017-07-20T00:23:18.924Z,12.27
2017-07-20T00:25:53.424Z,12.45
2017-07-20T00:28:27.784Z,13.30
2017-07-20T00:31:02.165Z,14.80
2017-07-20T00:33:36.649Z,14.13
2017-07-20T00:36:11.119Z,13.55
2017-07-20T00:38:45.403Z,14.25
2017-07-20T00:41:19.952Z,14.68
2017-07-20T00:43:54.411Z,14.95
2017-07-20T00:46:29.778Z,15.85
2017-07-20T00:49:04.212Z,14.95
2017-07-20T00:51:38.628Z,15.57
2017-07-20T00:54:13.132Z,15.93
2017-07-20T00:56:47.560Z,15.85
2017-07-20T00:59:22.068Z,15.13
2017-07-20T01:05:01.304Z,15.25
2017-07-20T01:07:35.728Z,15.48
2017-07-20T01:13:16.357Z,15.82
2017-07-20T01:15:50.788Z,16.15
2017-07-20T01:18:25.304Z,16.15
2017-07-20T01:20:59.771Z,16.05
2017-07-20T01:23:34.348Z,16.98
2017-07-20T01:26:08.682Z,16.60
2017-07-20T01:28:43.184Z,18.48
2017-07-20T01:31:17.544Z,17.42
2017-07-20T01:33:51.896Z,16.45
2017-07-20T01:36:26.433Z,17.77
2017-07-20T01:39:00.832Z,17.87
2017-07-20T01:41:35.185Z,16.83
2017-07-20T01:44:09.596Z,18.17
2017-07-20T01:46:43.968Z,16.23
2017-07-20T01:49:18.324Z,15.68
2017-07-20T01:51:52.701Z,16.25
2017-07-20T01:54:27.167Z,16.27
2017-07-20T01:57:02.464Z,14.70
2017-07-20T01:59:37.611Z,16.17
2017-07-20T02:02:12.160Z,17.27
2017-07-20T02:04:46.704Z,16.87
2017-07-20T02:07:21.176Z,17.05
2017-07-20T02:09:55.616Z,16.90
2017-07-20T02:12:29.942Z,16.23
2017-07-20T02:15:04.332Z,17.30
2017-07-20T02:17:38.829Z,15.90
2017-07-20T02:20:13.388Z,16.40
2017-07-20T02:22:47.757Z,18.27
2017-07-20T02:25:22.132Z,16.12
2017-07-20T02:27:56.524Z,16.73
2017-07-20T02:30:31.164Z,18.10
2017-07-20T02:33:05.560Z,17.90
2017-07-20T02:35:40.068Z,21.30
2017-07-20T02:38:14.504Z,17.50
2017-07-20T02:40:48.868Z,19.00
2017-07-20T02:43:23.368Z,18.98
2017-07-20T02:45:57.916Z,20.10
2017-07-20T02:48:33.192Z,18.98
2017-07-20T02:51:07.776Z,20.55
2017-07-20T02:53:42.144Z,19.33
2017-07-20T02:56:17.524Z,18.58
2017-07-20T02:58:51.820Z,19.77
2017-07-20T03:01:27.340Z,19.33
2017-07-20T03:04:02.600Z,20.88
2017-07-20T03:06:37.142Z,20.92
2017-07-20T03:09:11.613Z,20.75
2017-07-20T03:11:46.776Z,20.45
2017-07-20T03:14:21.172Z,21.20
2017-07-20T03:16:56.328Z,22.70
2017-07-20T03:19:30.744Z,21.55
2017-07-20T03:22:17.863Z,21.73
2017-07-20T03:24:52.294Z,21.62
2017-07-20T03:27:26.713Z,22.17
2017-07-20T03:30:01.229Z,19.92
2017-07-20T03:32:35.658Z,21.60
2017-07-20T03:35:10.092Z,21.83
2017-07-20T03:37:44.508Z,20.55
2017-07-20T03:40:18.927Z,21.60
2017-07-20T03:42:54.144Z,20.05
2017-07-20T03:45:28.525Z,21.08
2017-07-20T03:48:02.880Z,21.27
2017-07-20T03:50:38.104Z,22.17
2017-07-20T03:53:12.429Z,22.48
2017-07-20T03:55:46.974Z,23.83
2017-07-20T03:58:21.389Z,22.90
2017-07-20T04:00:55.934Z,24.92
2017-07-20T04:03:30.538Z,23.15
2017-07-20T04:06:04.916Z,23.55
2017-07-20T04:08:39.385Z,24.58
2017-07-20T04:11:13.872Z,25.37
2017-07-20T04:13:48.416Z,25.17
2017-07-20T04:16:22.937Z,26.60
2017-07-20T04:18:57.417Z,25.80
2017-07-20T04:21:31.836Z,24.92
2017-07-20T04:24:07.411Z,23.55
2017-07-20T04:26:42.618Z,23.87
2017-07-20T04:29:17.185Z,26.12
2017-07-20T04:31:52.388Z,26.00
2017-07-20T04:34:26.940Z,26.50
2017-07-20T04:37:01.315Z,25.60
2017-07-20T04:39:35.697Z,25.50
2017-07-20T04:42:10.076Z,26.25
2017-07-20T04:44:44.507Z,26.50
2017-07-20T04:47:18.971Z,27.62
2017-07-20T04:49:53.463Z,28.48
2017-07-20T04:52:28.040Z,28.00
2017-07-20T04:55:02.568Z,28.52
2017-07-20T04:57:37.056Z,29.83
2017-07-20T05:00:11.523Z,28.42
2017-07-20T05:02:46.017Z,30.40
2017-07-20T05:05:20.592Z,29.00
2017-07-20T05:07:55.739Z,28.33
2017-07-20T05:10:30.087Z,30.00
2017-07-20T05:13:04.660Z,28.38
2017-07-20T05:15:39.080Z,29.40
2017-07-20T05:18:14.284Z,29.90
2017-07-20T05:20:48.856Z,29.73
2017-07-20T05:23:23.352Z,27.60
2017-07-20T05:25:57.773Z,27.85
2017-07-20T05:28:32.165Z,28.85
2017-07-20T05:31:06.656Z,27.92
2017-07-20T05:33:41.144Z,27.17
2017-07-20T05:36:15.700Z,25.98
2017-07-20T05:38:50.969Z,26.42
2017-07-20T05:41:25.354Z,27.50
2017-07-20T05:43:59.716Z,26.83
2017-07-20T05:46:35.316Z,28.38
2017-07-20T05:49:09.651Z,27.67
2017-07-20T05:51:44.109Z,26.60
2017-07-20T05:54:18.641Z,28.38
2017-07-20T05:56:53.783Z,25.95
2017-07-20T05:59:28.072Z,26.80
2017-07-20T06:02:02.712Z,27.50
2017-07-20T06:04:37.820Z,27.40
2017-07-20T06:07:12.438Z,27.30
2017-07-20T06:09:46.790Z,26.37
2017-07-20T06:12:21.583Z,25.95
2017-07-20T06:14:56.068Z,26.00
2017-07-20T06:17:30.477Z,26.15
2017-07-20T06:20:04.982Z,23.10
2017-07-20T06:22:39.492Z,26.83
2017-07-20T06:25:14.708Z,25.88
2017-07-20T06:27:49.094Z,24.17
2017-07-20T06:30:23.452Z,24.85
2017-07-20T06:32:58.013Z,24.08
2017-07-20T06:35:32.488Z,24.27
2017-07-20T06:38:06.924Z,25.27
2017-07-20T06:40:41.392Z,25.90
2017-07-20T06:43:15.893Z,26.42
2017-07-20T06:45:50.365Z,24.60
2017-07-20T06:48:24.924Z,24.67
2017-07-20T06:50:59.321Z,24.50
2017-07-20T06:53:35.328Z,24.85
2017-07-20T06:56:09.806Z,23.17
2017-07-20T06:58:44.357Z,23.27
2017-07-20T07:01:18.704Z,23.40
2017-07-20T07:03:53.100Z,23.47
2017-07-20T07:06:27.496Z,25.80
2017-07-20T07:09:01.929Z,23.50
2017-07-20T07:11:36.387Z,24.10
2017-07-20T07:14:10.777Z,22.90
2017-07-20T07:16:45.123Z,23.77
2017-07-20T07:19:19.516Z,24.23
2017-07-20T07:21:53.912Z,22.90
2017-07-20T07:24:28.393Z,24.35
2017-07-20T07:27:02.952Z,22.77
2017-07-20T07:29:37.376Z,22.73
2017-07-20T07:32:11.780Z,21.50
2017-07-20T07:34:46.257Z,20.50
2017-07-20T07:37:20.740Z,22.30
2017-07-20T07:39:55.168Z,21.57
2017-07-20T07:42:29.676Z,21.43
2017-07-20T07:45:04.117Z,22.77
2017-07-20T07:47:39.312Z,20.30
2017-07-20T07:50:14.680Z,22.60
2017-07-20T07:52:49.196Z,19.93
2017-07-20T07:55:23.610Z,21.03
2017-07-20T07:57:58.005Z,21.80
2017-07-20T08:00:32.333Z,20.97
2017-07-20T08:03:06.677Z,23.20
2017-07-20T08:05:41.220Z,20.57
2017-07-20T08:08:15.587Z,24.10
2017-07-20T08:10:50.156Z,22.97
2017-07-20T08:13:24.565Z,22.40
2017-07-20T08:15:58.867Z,22.43
2017-07-20T08:18:33.176Z,23.10
2017-07-20T08:21:07.711Z,24.67
2017-07-20T08:23:42.824Z,23.17
2017-07-20T08:26:17.490Z,23.67
2017-07-20T08:28:51.965Z,22.27
2017-07-20T08:31:26.545Z,20.70
2017-07-20T08:34:00.972Z,21.90
2017-07-20T08:36:35.424Z,22.83
2017-07-20T08:39:09.832Z,21.40
2017-07-20T08:41:44.332Z,20.00
2017-07-20T08:44:18.625Z,24.13
2017-07-20T08:46:53.153Z,21.40
2017-07-20T08:49:27.645Z,23.13
2017-07-20T08:52:01.987Z,20.47
2017-07-20T08:54:36.356Z,23.77
2017-07-20T08:57:11.721Z,25.57
2017-07-20T08:59:46.243Z,23.47
2017-07-20T09:02:20.659Z,21.43
2017-07-20T09:04:55.177Z,23.17
2017-07-20T09:07:29.527Z,21.30
2017-07-20T09:10:03.890Z,22.63
2017-07-20T09:12:38.428Z,22.10
2017-07-20T09:15:12.767Z,22.50
2017-07-20T09:17:47.500Z,21.00
2017-07-20T09:20:21.808Z,19.13
2017-07-20T09:22:56.261Z,17.80
2017-07-20T09:25:30.644Z,19.03
2017-07-20T09:28:06.046Z,20.37
2017-07-20T09:30:40.301Z,22.13
2017-07-20T09:33:14.856Z,20.93
2017-07-20T09:35:49.220Z,22.93
2017-07-20T09:38:23.876Z,21.00
2017-07-20T09:40:58.249Z,23.73
2017-07-20T09:43:32.812Z,22.07
2017-07-20T09:46:08.005Z,20.87
2017-07-20T09:48:42.501Z,21.53
2017-07-20T09:51:16.797Z,19.70
2017-07-20T09:53:51.220Z,20.37
2017-07-20T09:56:25.724Z,19.37
2017-07-20T09:59:00.144Z,18.40
2017-07-20T10:01:35.318Z,18.87
2017-07-20T10:04:09.912Z,18.40
2017-07-20T10:06:44.297Z,17.90
2017-07-20T10:09:18.736Z,18.00
2017-07-20T10:11:53.251Z,18.60
2017-07-20T10:14:27.724Z,18.90
2017-07-20T10:17:02.067Z,19.10
2017-07-20T10:19:36.649Z,18.60
2017-07-20T10:22:11.840Z,18.03
2017-07-20T10:24:46.384Z,16.63
2017-07-20T10:27:20.776Z,17.20
2017-07-20T10:29:55.548Z,17.03
2017-07-20T10:32:29.945Z,16.40
2017-07-20T10:35:04.360Z,16.30
2017-07-20T10:37:38.836Z,16.57
2017-07-20T10:40:13.421Z,16.63
2017-07-20T10:42:47.790Z,17.97
2017-07-20T10:45:22.360Z,16.97
2017-07-20T10:47:56.720Z,17.00
2017-07-20T10:50:31.124Z,17.23
2017-07-20T10:53:05.510Z,16.50
2017-07-20T10:55:39.929Z,18.07
2017-07-20T10:58:14.567Z,18.17
2017-07-20T11:00:48.960Z,18.50
2017-07-20T11:03:23.328Z,18.70
2017-07-20T11:05:57.793Z,18.40
2017-07-20T11:08:32.188Z,19.87
2017-07-20T11:11:06.623Z,20.57
2017-07-20T11:13:41.104Z,18.80
2017-07-20T11:16:15.464Z,18.57
2017-07-20T11:18:50.001Z,19.17
2017-07-20T11:21:24.483Z,19.27
2017-07-20T11:23:59.065Z,19.70
2017-07-20T11:26:33.460Z,21.37
2017-07-20T11:29:07.791Z,21.70
2017-07-20T11:31:42.097Z,20.10
2017-07-20T11:34:16.499Z,22.17
2017-07-20T11:36:51.035Z,21.20
2017-07-20T11:39:25.879Z,22.67
2017-07-20T11:42:00.412Z,23.67
2017-07-20T11:44:34.947Z,24.50
2017-07-20T11:47:09.343Z,22.33
2017-07-20T11:49:43.806Z,22.40
2017-07-20T11:52:18.279Z,21.10
2017-07-20T11:54:52.863Z,22.27
2017-07-20T11:57:27.396Z,23.30
2017-07-20T12:00:01.829Z,20.30
2017-07-20T12:02:36.375Z,21.67
2017-07-20T12:05:10.896Z,21.57
2017-07-20T12:07:46.105Z,22.43
2017-07-20T12:10:21.399Z,25.30
2017-07-20T12:12:55.822Z,22.63
2017-07-20T12:15:30.315Z,22.13
2017-07-20T12:18:04.683Z,22.20
2017-07-20T12:20:39.180Z,22.00
2017-07-20T12:23:13.691Z,23.37
2017-07-20T12:25:48.138Z,25.17
2017-07-20T12:28:22.495Z,24.40
2017-07-20T12:30:56.907Z,26.80
2017-07-20T12:33:31.408Z,25.47
2017-07-20T12:36:05.875Z,26.17
2017-07-20T12:38:40.320Z,26.33
2017-07-20T12:41:14.756Z,23.80
2017-07-20T12:43:49.121Z,23.93
2017-07-20T12:46:23.595Z,23.30
2017-07-20T12:48:57.939Z,23.77
2017-07-20T12:51:32.304Z,23.23
2017-07-20T12:54:06.777Z,22.17
2017-07-20T12:56:41.477Z,21.73
2017-07-20T12:59:15.926Z,21.50
2017-07-20T13:01:50.418Z,23.03
2017-07-20T13:04:24.860Z,23.90
2017-07-20T13:06:59.232Z,26.60
2017-07-20T13:09:33.582Z,24.20
2017-07-20T13:12:07.925Z,26.20
2017-07-20T13:14:42.216Z,24.20
2017-07-20T13:17:16.649Z,22.03
2017-07-20T13:19:51.060Z,20.50
2017-07-20T13:22:25.621Z,19.77
2017-07-20T13:25:00.024Z,17.97
2017-07-20T13:27:34.624Z,19.03
2017-07-20T13:30:09.032Z,18.50
2017-07-20T13:32:43.368Z,19.10
2017-07-20T13:35:17.917Z,19.37
2017-07-20T13:37:52.420Z,18.10
2017-07-20T13:40:26.950Z,16.47
2017-07-20T13:43:01.481Z,18.30
2017-07-20T13:45:35.859Z,16.37
2017-07-20T13:48:11.211Z,17.00
2017-07-20T13:50:45.740Z,16.77
2017-07-20T13:53:20.177Z,16.07
2017-07-20T13:55:54.560Z,16.73
2017-07-20T13:58:29.099Z,20.87
2017-07-20T14:01:03.417Z,18.10
2017-07-20T14:03:37.773Z,16.03
2017-07-20T14:06:12.177Z,16.70
2017-07-20T14:08:46.810Z,16.83
2017-07-20T14:11:21.312Z,16.53
2017-07-20T14:13:56.060Z,15.17
2017-07-20T14:16:30.452Z,15.67
2017-07-20T14:19:04.787Z,15.17
2017-07-20T14:21:39.188Z,16.30
2017-07-20T14:24:13.539Z,15.90
2017-07-20T14:26:47.928Z,14.83
2017-07-20T14:29:22.412Z,17.50
2017-07-20T14:31:57.184Z,16.23
2017-07-20T14:37:13.738Z,15.37
2017-07-20T14:39:48.204Z,16.50
2017-07-20T14:42:22.648Z,15.83
2017-07-20T14:44:57.747Z,15.27
2017-07-20T14:47:32.228Z,15.80
2017-07-20T14:50:06.575Z,17.07
2017-07-20T14:52:40.971Z,16.40
2017-07-20T14:55:15.323Z,18.00
2017-07-20T14:57:50.483Z,16.47
2017-07-20T15:00:25.021Z,14.57
2017-07-20T15:02:59.668Z,17.10
2017-07-20T15:05:34.048Z,15.20
2017-07-20T15:08:08.468Z,16.07
2017-07-20T15:10:42.984Z,15.80
2017-07-20T15:13:17.416Z,16.13
2017-07-20T15:15:51.798Z,17.30
2017-07-20T15:18:26.135Z,17.77
2017-07-20T15:21:00.683Z,16.50
2017-07-20T15:23:35.128Z,16.30
2017-07-20T15:26:09.573Z,16.63
2017-07-20T15:28:44.185Z,18.40
2017-07-20T15:31:18.748Z,18.03
2017-07-20T15:33:53.305Z,18.93
2017-07-20T15:36:27.655Z,18.70
2017-07-20T15:39:02.427Z,16.97
2017-07-20T15:41:37.532Z,17.10
2017-07-20T15:44:11.916Z,16.43
2017-07-20T15:46:46.276Z,17.00
2017-07-20T15:49:20.748Z,19.10
2017-07-20T15:51:56.029Z,17.13
2017-07-20T15:54:31.425Z,16.23
2017-07-20T15:57:05.913Z,15.80
2017-07-20T15:59:40.366Z,18.10
2017-07-20T16:02:14.744Z,16.40
2017-07-20T16:04:49.321Z,17.80
2017-07-20T16:07:23.784Z,17.53
2017-07-20T16:09:58.208Z,17.83
2017-07-20T16:12:32.746Z,19.13
2017-07-20T16:15:07.124Z,19.37
2017-07-20T16:17:42.269Z,18.47
2017-07-20T16:20:16.836Z,17.67
2017-07-20T16:22:51.958Z,17.70
2017-07-20T16:25:26.373Z,16.70
2017-07-20T16:28:00.760Z,16.13
2017-07-20T16:30:36.141Z,14.37
2017-07-20T16:33:10.614Z,16.60
2017-07-20T16:35:45.105Z,16.20
2017-07-20T16:38:19.591Z,14.97
2017-07-20T16:40:54.232Z,14.00
2017-07-20T16:43:28.729Z,15.13
2017-07-20T16:46:03.167Z,14.83
2017-07-20T16:48:37.668Z,15.60
2017-07-20T16:51:12.151Z,14.63
2017-07-20T16:53:46.651Z,13.63
2017-07-20T16:56:21.072Z,12.50
2017-07-20T16:58:55.436Z,12.10
2017-07-20T17:01:29.889Z,13.10
2017-07-20T17:04:05.184Z,13.00
2017-07-20T17:06:39.765Z,14.00
2017-07-20T17:09:14.060Z,13.70
2017-07-20T17:11:48.468Z,14.03
2017-07-20T17:14:22.868Z,14.10
2017-07-20T17:16:57.308Z,14.33
2017-07-20T17:19:31.828Z,12.83
2017-07-20T17:22:06.299Z,14.00
2017-07-20T17:24:52.117Z,13.43
2017-07-20T17:27:26.746Z,12.37
2017-07-20T17:30:01.091Z,14.00
2017-07-20T17:32:44.226Z,14.57
2017-07-20T17:35:18.509Z,13.43
2017-07-20T17:37:57.682Z,14.10
2017-07-20T17:40:32.880Z,13.90
2017-07-20T17:43:07.331Z,14.20
2017-07-20T17:45:41.708Z,14.67
2017-07-20T17:48:16.289Z,14.13
2017-07-20T17:50:50.780Z,14.23
2017-07-20T17:53:25.320Z,15.40
2017-07-20T17:56:00.370Z,14.10
2017-07-20T17:58:36.046Z,14.23
2017-07-20T18:01:10.492Z,14.13
2017-07-20T18:03:44.882Z,14.57
2017-07-20T18:06:20.122Z,15.17
2017-07-20T18:08:54.608Z,15.60
2017-07-20T18:11:28.996Z,15.60
2017-07-20T18:14:03.408Z,14.57
2017-07-20T18:16:38.628Z,15.43
2017-07-20T18:19:13.243Z,14.73
2017-07-20T18:21:47.601Z,15.50
2017-07-20T18:24:22.097Z,15.20
2017-07-20T18:26:56.583Z,16.87
2017-07-20T18:29:31.034Z,16.17
2017-07-20T18:32:05.877Z,16.00
2017-07-20T18:34:40.999Z,17.10
2017-07-20T18:37:15.447Z,16.13
2017-07-20T18:39:50.760Z,16.40
2017-07-20T18:42:25.291Z,16.50
2017-07-20T18:44:59.819Z,15.23
2017-07-20T18:47:34.466Z,15.77
2017-07-20T18:50:08.827Z,15.83
2017-07-20T18:52:43.332Z,15.60
2017-07-20T18:55:17.684Z,18.93
2017-07-20T18:57:52.251Z,15.33
2017-07-20T19:00:26.755Z,14.93
2017-07-20T19:03:01.436Z,14.97
2017-07-20T19:05:35.776Z,16.07
2017-07-20T19:08:10.108Z,15.17
2017-07-20T19:10:44.417Z,15.43
2017-07-20T19:13:19.184Z,15.67
2017-07-20T19:15:53.667Z,15.00
2017-07-20T19:18:28.117Z,13.30
2017-07-20T19:21:02.569Z,12.90
2017-07-20T19:23:37.064Z,13.63
2017-07-20T19:26:11.448Z,13.57
2017-07-20T19:28:46.233Z,13.70
2017-07-20T19:31:20.659Z,12.97
2017-07-20T19:33:55.312Z,13.10
2017-07-20T19:36:29.788Z,12.70
2017-07-20T19:39:04.186Z,12.13
2017-07-20T19:41:38.648Z,12.97
2017-07-20T19:44:13.300Z,11.43
2017-07-20T19:46:47.844Z,14.17
2017-07-20T19:49:22.351Z,12.77
2017-07-20T19:51:56.821Z,13.10
2017-07-20T19:54:34.520Z,13.93
2017-07-20T19:57:08.955Z,12.50
2017-07-20T19:59:44.141Z,13.20
2017-07-20T20:02:18.619Z,13.67
2017-07-20T20:04:52.980Z,14.20
2017-07-20T20:07:36.089Z,14.10
2017-07-20T20:10:11.239Z,13.80
2017-07-20T20:12:45.664Z,13.10
2017-07-20T20:15:20.068Z,13.40
2017-07-20T20:17:54.499Z,13.10
2017-07-20T20:20:29.215Z,12.87
2017-07-20T20:23:03.539Z,12.47
2017-07-20T20:25:38.064Z,13.03
2017-07-20T20:28:12.544Z,14.50
2017-07-20T20:30:47.027Z,12.90
2017-07-20T20:33:21.492Z,12.97
2017-07-20T20:35:55.868Z,12.90
2017-07-20T20:38:30.310Z,14.50
2017-07-20T20:41:04.793Z,14.67
2017-07-20T20:43:39.283Z,14.97
2017-07-20T20:46:13.708Z,14.60
2017-07-20T20:48:48.097Z,15.97
2017-07-20T20:51:22.644Z,15.33
2017-07-20T20:53:57.158Z,15.97
2017-07-20T20:56:31.604Z,14.73
2017-07-20T20:59:06.045Z,14.90
2017-07-20T21:01:40.413Z,14.43
2017-07-20T21:04:14.812Z,15.00
2017-07-20T21:06:49.360Z,16.13
2017-07-20T21:09:23.741Z,16.83
2017-07-20T21:11:58.239Z,18.30
2017-07-20T21:14:32.597Z,16.97
2017-07-20T21:17:07.260Z,16.97
2017-07-20T21:19:41.784Z,17.23
2017-07-20T21:22:16.406Z,17.40
2017-07-20T21:24:50.869Z,17.90
2017-07-20T21:27:25.336Z,18.63
2017-07-20T21:29:59.724Z,19.80
2017-07-20T21:32:34.069Z,20.40
2017-07-20T21:35:08.457Z,18.13
2017-07-20T21:37:43.137Z,19.57
2017-07-20T21:40:18.328Z,19.83
2017-07-20T21:42:52.726Z,20.37
2017-07-20T21:45:27.201Z,18.30
2017-07-20T21:48:01.756Z,18.90
2017-07-20T21:50:36.090Z,19.10
2017-07-20T21:53:10.475Z,21.73
2017-07-20T21:55:44.968Z,20.60
2017-07-20T21:58:19.713Z,20.83
2017-07-20T22:00:54.138Z,20.67
2017-07-20T22:03:28.659Z,20.30
2017-07-20T22:06:03.153Z,18.60
2017-07-20T22:08:37.716Z,21.70
2017-07-20T22:11:12.156Z,21.13
2017-07-20T22:13:46.724Z,20.60
2017-07-20T22:16:21.255Z,21.40
2017-07-20T22:18:55.868Z,18.90
2017-07-20T22:21:30.599Z,21.03
2017-07-20T22:24:05.162Z,21.30
2017-07-20T22:26:39.875Z,20.63
2017-07-20T22:29:14.428Z,19.50
2017-07-20T22:31:49.199Z,20.50
2017-07-20T22:34:23.684Z,22.97
2017-07-20T22:36:58.246Z,23.93
2017-07-20T22:39:32.804Z,22.50
2017-07-20T22:42:07.304Z,25.13
2017-07-20T22:44:41.902Z,26.80
2017-07-20T22:47:16.472Z,30.07
2017-07-20T22:49:51.007Z,29.83
2017-07-20T22:52:25.596Z,30.40
2017-07-20T22:55:00.029Z,32.78
2017-07-20T22:57:34.558Z,32.53
2017-07-20T23:00:09.013Z,31.70
2017-07-20T23:02:43.584Z,30.80
2017-07-20T23:05:17.959Z,31.90
2017-07-20T23:07:52.392Z,30.03
2017-07-20T23:10:27.037Z,31.52
2017-07-20T23:13:01.644Z,32.42
2017-07-20T23:15:36.184Z,32.27
2017-07-20T23:18:11.317Z,32.33
2017-07-20T23:20:45.946Z,30.12
2017-07-20T23:23:20.337Z,32.92
2017-07-20T23:25:55.703Z,32.97
2017-07-20T23:28:30.180Z,31.10
2017-07-20T23:31:04.869Z,33.40
2017-07-20T23:33:39.431Z,34.20
2017-07-20T23:36:13.911Z,30.80
2017-07-20T23:38:48.364Z,34.35
2017-07-20T23:41:22.939Z,33.35
2017-07-20T23:43:57.556Z,33.45
2017-07-20T23:46:32.081Z,34.78
2017-07-20T23:49:06.457Z,34.85
2017-07-20T23:51:41.266Z,33.40
2017-07-20T23:54:15.828Z,34.45
2017-07-20T23:56:50.345Z,35.03
2017-07-20T23:59:24.977Z,36.20
